createdAt,value
2017-12-19T00:00:02.429Z,31.65
2017-12-19T00:02:29.902Z,31.65
2017-12-19T00:04:57.386Z,26.20
2017-12-19T00:07:24.888Z,25.35
2017-12-19T00:09:52.351Z,31.42
2017-12-19T00:12:19.821Z,32.17
2017-12-19T00:14:47.304Z,33.10
2017-12-19T00:17:14.857Z,25.60
2017-12-19T00:19:42.421Z,29.35
2017-12-19T00:22:09.977Z,23.33
2017-12-19T00:24:37.546Z,24.92
2017-12-19T00:27:05.005Z,27.50
2017-12-19T00:29:33.248Z,31.35
2017-12-19T00:32:00.731Z,27.98
2017-12-19T00:34:28.281Z,24.80
2017-12-19T00:36:55.739Z,31.80
2017-12-19T00:39:24.013Z,25.65
2017-12-19T00:41:51.573Z,28.65
2017-12-19T00:44:19.037Z,26.98
2017-12-19T00:46:46.492Z,30.30
2017-12-19T00:49:14.056Z,31.67
2017-12-19T00:51:41.562Z,26.92
2017-12-19T00:54:09.014Z,26.08
2017-12-19T00:56:36.482Z,30.08
2017-12-19T00:59:03.982Z,25.55
2017-12-19T01:01:31.438Z,31.65
2017-12-19T01:03:58.992Z,29.25
2017-12-19T01:06:26.459Z,29.98
2017-12-19T01:08:53.912Z,25.92
2017-12-19T01:11:21.433Z,33.10
2017-12-19T01:13:48.876Z,27.40
2017-12-19T01:16:16.340Z,24.08
2017-12-19T01:18:43.816Z,34.42
2017-12-19T01:21:11.398Z,28.33
2017-12-19T01:23:38.866Z,29.17
2017-12-19T01:26:07.220Z,27.75
2017-12-19T01:28:34.744Z,29.95
2017-12-19T01:31:02.200Z,22.60
2017-12-19T01:33:29.660Z,31.65
2017-12-19T01:35:57.133Z,27.60
2017-12-19T01:38:24.610Z,29.67
2017-12-19T01:40:52.073Z,37.42
2017-12-19T01:43:19.528Z,30.10
2017-12-19T01:45:46.988Z,31.27
2017-12-19T01:48:14.529Z,28.55
2017-12-19T01:50:41.989Z,33.55
2017-12-19T01:53:10.213Z,24.95
2017-12-19T01:55:37.719Z,31.23
2017-12-19T01:58:05.279Z,24.83
2017-12-19T02:00:34.247Z,25.33
2017-12-19T02:03:01.791Z,27.33
2017-12-19T02:05:29.292Z,28.35
2017-12-19T02:07:56.772Z,27.35
2017-12-19T02:10:25.016Z,27.95
2017-12-19T02:12:52.492Z,36.60
2017-12-19T02:15:20.033Z,30.42
2017-12-19T02:17:47.488Z,25.98
2017-12-19T02:20:14.954Z,27.48
2017-12-19T02:22:42.410Z,28.25
2017-12-19T02:25:09.971Z,29.65
2017-12-19T02:27:37.428Z,27.75
2017-12-19T02:30:04.893Z,31.42
2017-12-19T02:32:32.349Z,29.05
2017-12-19T02:35:00.575Z,30.77
2017-12-19T02:37:28.041Z,29.83
2017-12-19T02:39:55.515Z,32.50
2017-12-19T02:42:22.964Z,28.45
2017-12-19T02:44:50.436Z,31.08
2017-12-19T02:47:17.892Z,27.87
2017-12-19T02:49:45.353Z,30.77
2017-12-19T02:52:14.336Z,32.17
2017-12-19T02:54:43.300Z,32.95
2017-12-19T02:57:10.788Z,26.42
2017-12-19T02:59:38.348Z,33.97
2017-12-19T03:02:05.900Z,32.45
2017-12-19T03:04:33.469Z,26.48
2017-12-19T03:07:00.928Z,31.60
2017-12-19T03:09:28.384Z,32.00
2017-12-19T03:11:55.845Z,26.80
2017-12-19T03:14:24.067Z,31.65
2017-12-19T03:16:51.533Z,37.13
2017-12-19T03:19:18.992Z,29.85
2017-12-19T03:21:46.452Z,29.67
2017-12-19T03:24:13.937Z,27.58
2017-12-19T03:26:41.503Z,27.60
2017-12-19T03:29:09.052Z,38.97
2017-12-19T03:31:36.506Z,29.67
2017-12-19T03:34:03.977Z,26.95
2017-12-19T03:36:32.249Z,32.95
2017-12-19T03:38:59.712Z,33.05
2017-12-19T03:41:27.176Z,31.62
2017-12-19T03:43:55.368Z,28.98
2017-12-19T03:46:22.884Z,31.02
2017-12-19T03:48:50.344Z,29.55
2017-12-19T03:51:17.900Z,31.35
2017-12-19T03:53:45.365Z,26.33
2017-12-19T03:56:12.836Z,37.17
2017-12-19T03:58:40.321Z,31.15
2017-12-19T04:01:07.780Z,35.25
2017-12-19T04:03:35.245Z,27.02
2017-12-19T04:06:02.772Z,30.23
2017-12-19T04:08:31.024Z,26.02
2017-12-19T04:10:58.582Z,34.85
2017-12-19T04:13:26.049Z,30.37
2017-12-19T04:15:55.040Z,34.40
2017-12-19T04:18:22.547Z,32.63
2017-12-19T04:20:50.758Z,31.40
2017-12-19T04:23:18.316Z,33.67
2017-12-19T04:25:45.772Z,30.27
2017-12-19T04:28:13.287Z,34.20
2017-12-19T04:30:40.700Z,31.12
2017-12-19T04:33:08.245Z,31.75
2017-12-19T04:35:35.705Z,36.80
2017-12-19T04:38:03.260Z,33.47
2017-12-19T04:40:30.737Z,29.12
2017-12-19T04:42:58.956Z,34.03
2017-12-19T04:45:26.414Z,33.15
2017-12-19T04:47:53.916Z,33.58
2017-12-19T04:50:21.368Z,33.83
2017-12-19T04:52:48.837Z,33.30
2017-12-19T04:55:17.097Z,32.72
2017-12-19T04:57:44.565Z,30.20
2017-12-19T05:00:12.056Z,33.05
2017-12-19T05:02:39.569Z,35.60
2017-12-19T05:05:07.029Z,34.40
2017-12-19T05:07:34.492Z,33.30
2017-12-19T05:10:02.100Z,36.10
2017-12-19T05:12:29.582Z,34.20
2017-12-19T05:14:57.040Z,39.10
2017-12-19T05:17:24.526Z,31.73
2017-12-19T05:19:52.073Z,34.80
2017-12-19T05:22:19.600Z,28.98
2017-12-19T05:24:47.084Z,29.25
2017-12-19T05:27:14.545Z,38.58
2017-12-19T05:29:42.091Z,30.48
2017-12-19T05:32:09.663Z,34.42
2017-12-19T05:34:37.120Z,29.98
2017-12-19T05:37:04.668Z,31.37
2017-12-19T05:39:32.131Z,32.03
2017-12-19T05:42:01.182Z,32.60
2017-12-19T05:44:28.640Z,34.10
2017-12-19T05:46:56.100Z,38.58
2017-12-19T05:49:23.561Z,32.92
2017-12-19T05:51:51.020Z,33.78
2017-12-19T05:54:18.667Z,38.97
2017-12-19T05:56:46.119Z,39.55
2017-12-19T05:59:13.589Z,33.33
2017-12-19T06:01:41.141Z,32.60
2017-12-19T06:04:08.594Z,32.83
2017-12-19T06:06:36.090Z,31.75
2017-12-19T06:09:03.553Z,40.72
2017-12-19T06:11:31.021Z,35.40
2017-12-19T06:13:58.479Z,32.30
2017-12-19T06:16:25.945Z,33.78
2017-12-19T06:18:54.166Z,36.30
2017-12-19T06:21:21.640Z,33.15
2017-12-19T06:23:49.097Z,72.40
2017-12-19T06:26:16.673Z,33.85
2017-12-19T06:28:44.225Z,40.25
2017-12-19T06:31:11.791Z,30.15
2017-12-19T06:33:39.244Z,29.83
2017-12-19T06:36:06.703Z,35.10
2017-12-19T06:38:34.162Z,33.08
2017-12-19T06:41:01.717Z,33.78
2017-12-19T06:43:29.272Z,30.95
2017-12-19T06:45:56.728Z,36.28
2017-12-19T06:48:24.197Z,35.83
2017-12-19T06:50:52.421Z,28.87
2017-12-19T06:53:19.948Z,36.55
2017-12-19T06:55:48.162Z,33.63
2017-12-19T06:58:15.628Z,37.65
2017-12-19T07:00:43.080Z,34.08
2017-12-19T07:03:10.541Z,32.35
2017-12-19T07:05:38.000Z,32.40
2017-12-19T07:08:05.475Z,34.90
2017-12-19T07:10:33.029Z,35.63
2017-12-19T07:13:00.488Z,30.58
2017-12-19T07:15:27.976Z,39.25
2017-12-19T07:17:56.220Z,35.10
2017-12-19T07:20:23.782Z,35.65
2017-12-19T07:22:51.357Z,32.20
2017-12-19T07:25:18.899Z,36.53
2017-12-19T07:27:46.416Z,37.63
2017-12-19T07:30:13.892Z,37.75
2017-12-19T07:32:41.394Z,36.55
2017-12-19T07:35:09.644Z,36.10
2017-12-19T07:37:37.209Z,34.85
2017-12-19T07:40:04.784Z,38.83
2017-12-19T07:42:32.241Z,35.95
2017-12-19T07:45:00.484Z,35.85
2017-12-19T07:47:27.971Z,38.00
2017-12-19T07:49:55.505Z,36.90
2017-12-19T07:52:22.964Z,37.45
2017-12-19T07:54:50.420Z,35.45
2017-12-19T07:57:18.679Z,35.90
2017-12-19T07:59:46.140Z,37.10
2017-12-19T08:02:13.604Z,36.80
2017-12-19T08:04:41.065Z,38.20
2017-12-19T08:07:09.336Z,35.58
2017-12-19T08:09:36.808Z,36.97
2017-12-19T08:12:04.339Z,36.83
2017-12-19T08:14:31.799Z,39.78
2017-12-19T08:16:59.270Z,39.55
2017-12-19T08:19:26.728Z,39.03
2017-12-19T08:21:54.293Z,40.67
2017-12-19T08:24:21.980Z,41.42
2017-12-19T08:26:50.217Z,39.47
2017-12-19T08:29:17.780Z,41.37
2017-12-19T08:31:45.240Z,40.95
2017-12-19T08:34:12.697Z,39.72
2017-12-19T08:36:40.157Z,42.72
2017-12-19T08:39:07.632Z,44.00
2017-12-19T08:41:35.082Z,42.45
2017-12-19T08:44:02.540Z,41.25
2017-12-19T08:46:30.766Z,43.65
2017-12-19T08:48:58.232Z,42.10
2017-12-19T08:51:25.689Z,44.85
2017-12-19T08:53:53.185Z,46.55
2017-12-19T08:56:21.456Z,46.80
2017-12-19T08:58:49.002Z,57.88
2017-12-19T09:01:16.460Z,55.15
2017-12-19T09:03:44.079Z,45.05
2017-12-19T09:06:11.588Z,53.70
2017-12-19T09:08:39.054Z,58.17
2017-12-19T09:11:07.282Z,62.55
2017-12-19T09:13:34.748Z,59.13
2017-12-19T09:16:02.220Z,58.03
2017-12-19T09:18:29.681Z,59.67
2017-12-19T09:20:57.233Z,57.60
2017-12-19T09:23:24.700Z,56.80
2017-12-19T09:25:52.181Z,58.05
2017-12-19T09:28:20.408Z,59.42
2017-12-19T09:30:47.865Z,60.53
2017-12-19T09:33:15.324Z,59.20
2017-12-19T09:35:42.956Z,58.70
2017-12-19T09:38:10.406Z,60.78
2017-12-19T09:40:37.866Z,58.03
2017-12-19T09:43:05.325Z,59.30
2017-12-19T09:45:32.833Z,61.03
2017-12-19T09:48:00.291Z,54.03
2017-12-19T09:50:27.768Z,56.30
2017-12-19T09:52:55.993Z,56.30
2017-12-19T09:55:23.492Z,49.80
2017-12-19T09:57:51.717Z,60.67
2017-12-19T10:00:19.287Z,59.15
2017-12-19T10:02:46.773Z,69.20
2017-12-19T10:05:14.316Z,58.55
2017-12-19T10:07:41.837Z,61.65
2017-12-19T10:10:09.280Z,67.43
2017-12-19T10:12:36.784Z,75.87
2017-12-19T10:15:04.246Z,65.18
2017-12-19T10:17:31.712Z,67.62
2017-12-19T10:19:59.264Z,82.88
2017-12-19T10:22:26.728Z,68.45
2017-12-19T10:24:54.184Z,68.35
2017-12-19T10:27:21.728Z,67.15
2017-12-19T10:29:49.288Z,75.32
2017-12-19T10:32:16.764Z,72.12
2017-12-19T10:34:45.801Z,72.37
2017-12-19T10:37:13.265Z,64.62
2017-12-19T10:39:40.737Z,68.07
2017-12-19T10:42:08.198Z,76.55
2017-12-19T10:44:35.659Z,84.32
2017-12-19T10:47:03.224Z,76.37
2017-12-19T10:49:30.688Z,81.15
2017-12-19T10:51:58.269Z,72.72
2017-12-19T10:54:26.524Z,71.15
2017-12-19T10:56:53.992Z,73.82
2017-12-19T10:59:21.452Z,64.30
2017-12-19T11:01:49.053Z,64.60
2017-12-19T11:04:16.539Z,72.15
2017-12-19T11:06:44.007Z,65.55
2017-12-19T11:09:11.588Z,67.87
2017-12-19T11:11:39.812Z,65.53
2017-12-19T11:14:07.272Z,60.67
2017-12-19T11:16:34.753Z,64.50
2017-12-19T11:19:02.977Z,71.22
2017-12-19T11:21:30.486Z,63.85
2017-12-19T11:23:58.044Z,66.03
2017-12-19T11:26:25.604Z,63.58
2017-12-19T11:28:53.066Z,57.88
2017-12-19T11:31:20.528Z,60.58
2017-12-19T11:33:48.076Z,54.20
2017-12-19T11:36:15.649Z,56.15
2017-12-19T11:38:43.194Z,48.53
2017-12-19T11:41:10.757Z,55.10
2017-12-19T11:43:38.220Z,46.80
2017-12-19T11:46:05.700Z,45.75
2017-12-19T11:48:33.940Z,38.90
2017-12-19T11:51:01.501Z,38.05
2017-12-19T11:53:28.968Z,38.58
2017-12-19T11:55:56.507Z,39.50
2017-12-19T11:58:23.972Z,38.28
2017-12-19T12:00:52.969Z,40.15
2017-12-19T12:03:20.524Z,32.28
2017-12-19T12:05:48.075Z,36.55
2017-12-19T12:08:15.637Z,33.35
2017-12-19T12:10:43.091Z,37.97
2017-12-19T12:13:10.561Z,31.50
2017-12-19T12:15:38.121Z,30.27
2017-12-19T12:18:05.668Z,34.75
2017-12-19T12:20:33.129Z,33.25
2017-12-19T12:23:00.688Z,30.00
2017-12-19T12:25:28.240Z,31.17
2017-12-19T12:27:55.796Z,33.50
2017-12-19T12:30:23.261Z,31.00
2017-12-19T12:32:50.717Z,25.75
2017-12-19T12:35:18.176Z,25.70
2017-12-19T12:37:45.744Z,30.02
2017-12-19T12:40:13.250Z,32.25
2017-12-19T12:42:40.717Z,27.62
2017-12-19T12:45:08.183Z,23.33
2017-12-19T12:47:35.665Z,31.55
2017-12-19T12:50:03.214Z,24.15
2017-12-19T12:52:30.669Z,31.20
2017-12-19T12:54:58.129Z,29.80
2017-12-19T12:57:25.684Z,29.27
2017-12-19T12:59:53.248Z,28.45
2017-12-19T13:02:20.723Z,30.10
2017-12-19T13:04:48.261Z,24.55
2017-12-19T13:07:15.882Z,23.70
2017-12-19T13:09:43.333Z,21.50
2017-12-19T13:12:10.796Z,29.33
2017-12-19T13:14:38.663Z,28.73
2017-12-19T13:17:06.301Z,25.73
2017-12-19T13:19:33.778Z,28.10
2017-12-19T13:22:01.263Z,20.65
2017-12-19T13:24:28.721Z,25.05
2017-12-19T13:26:56.244Z,27.23
2017-12-19T13:29:23.709Z,21.77
2017-12-19T13:31:51.237Z,24.08
2017-12-19T13:34:19.480Z,24.10
2017-12-19T13:36:47.042Z,29.83
2017-12-19T13:39:16.016Z,23.55
2017-12-19T13:41:43.489Z,25.00
2017-12-19T13:44:11.211Z,23.35
2017-12-19T13:46:38.673Z,31.52
2017-12-19T13:49:06.163Z,28.12
2017-12-19T13:51:33.715Z,22.50
2017-12-19T13:54:01.177Z,28.73
2017-12-19T13:56:28.744Z,33.20
2017-12-19T13:58:56.230Z,26.77
2017-12-19T14:01:24.451Z,30.35
2017-12-19T14:03:51.923Z,38.42
2017-12-19T14:06:19.392Z,23.85
2017-12-19T14:08:46.854Z,29.30
2017-12-19T14:11:14.306Z,30.25
2017-12-19T14:13:41.857Z,25.05
2017-12-19T14:16:09.416Z,21.73
2017-12-19T14:18:36.985Z,24.65
2017-12-19T14:21:04.708Z,29.05
2017-12-19T14:23:32.200Z,24.27
2017-12-19T14:25:59.774Z,27.50
2017-12-19T14:28:28.089Z,24.77
2017-12-19T14:30:55.556Z,30.05
2017-12-19T14:33:23.095Z,28.38
2017-12-19T14:35:50.567Z,34.53
2017-12-19T14:38:18.024Z,27.92
2017-12-19T14:40:45.520Z,25.70
2017-12-19T14:43:13.068Z,27.15
2017-12-19T14:45:40.533Z,33.63
2017-12-19T14:48:07.998Z,27.73
2017-12-19T14:50:35.460Z,35.85
2017-12-19T14:53:03.010Z,34.50
2017-12-19T14:55:30.468Z,28.48
2017-12-19T14:57:57.920Z,27.05
2017-12-19T15:00:25.434Z,28.30
2017-12-19T15:02:52.930Z,26.85
2017-12-19T15:05:21.156Z,27.35
2017-12-19T15:07:48.613Z,24.58
2017-12-19T15:10:16.074Z,29.90
2017-12-19T15:12:43.581Z,29.30
2017-12-19T15:15:11.024Z,33.80
2017-12-19T15:17:38.493Z,29.12
2017-12-19T15:20:06.827Z,32.83
2017-12-19T15:22:34.598Z,23.15
2017-12-19T15:25:03.017Z,30.33
2017-12-19T15:27:31.333Z,35.80
2017-12-19T15:29:58.865Z,32.65
2017-12-19T15:32:26.317Z,32.22
2017-12-19T15:34:54.540Z,25.80
2017-12-19T15:37:22.024Z,27.60
2017-12-19T15:39:49.497Z,27.05
2017-12-19T15:42:17.006Z,26.67
2017-12-19T15:44:44.555Z,31.77
2017-12-19T15:47:12.065Z,27.00
2017-12-19T15:49:39.521Z,28.08
2017-12-19T15:52:06.976Z,25.52
2017-12-19T15:54:34.534Z,26.10
2017-12-19T15:57:02.089Z,34.00
2017-12-19T15:59:29.559Z,31.25
2017-12-19T16:01:57.104Z,22.13
2017-12-19T16:04:24.676Z,28.45
2017-12-19T16:06:52.133Z,29.58
2017-12-19T16:09:19.640Z,31.62
2017-12-19T16:11:47.199Z,30.00
2017-12-19T16:14:14.676Z,30.80
2017-12-19T16:16:42.155Z,30.27
2017-12-19T16:19:09.610Z,34.95
2017-12-19T16:21:37.168Z,32.00
2017-12-19T16:24:04.624Z,25.62
2017-12-19T16:26:32.080Z,28.08
2017-12-19T16:28:59.640Z,21.65
2017-12-19T16:31:27.099Z,27.08
2017-12-19T16:33:55.088Z,36.85
2017-12-19T16:36:23.340Z,33.28
2017-12-19T16:38:50.817Z,36.03
2017-12-19T16:41:19.044Z,37.13
2017-12-19T16:43:46.495Z,33.15
2017-12-19T16:46:13.988Z,36.97
2017-12-19T16:48:41.437Z,29.52
2017-12-19T16:51:09.062Z,36.22
2017-12-19T16:53:36.560Z,42.72
2017-12-19T16:56:05.520Z,34.80
2017-12-19T16:58:32.985Z,36.00
2017-12-19T17:01:00.462Z,38.70
2017-12-19T17:03:28.020Z,42.08
2017-12-19T17:05:55.492Z,34.72
2017-12-19T17:08:23.042Z,40.97
2017-12-19T17:10:50.500Z,35.97
2017-12-19T17:13:19.549Z,38.22
2017-12-19T17:15:47.002Z,39.30
2017-12-19T17:18:14.512Z,34.47
2017-12-19T17:20:41.960Z,43.15
2017-12-19T17:23:09.428Z,36.75
2017-12-19T17:25:36.882Z,33.28
2017-12-19T17:28:04.354Z,32.00
2017-12-19T17:30:32.616Z,42.90
2017-12-19T17:33:00.172Z,37.33
2017-12-19T17:35:27.716Z,39.38
2017-12-19T17:37:55.285Z,29.42
2017-12-19T17:40:22.741Z,34.33
2017-12-19T17:42:51.709Z,29.80
2017-12-19T17:45:19.190Z,34.38
2017-12-19T17:47:46.645Z,37.22
2017-12-19T17:50:14.262Z,37.58
2017-12-19T17:52:41.714Z,36.72
2017-12-19T17:55:09.177Z,32.85
2017-12-19T17:57:36.673Z,33.85
2017-12-19T18:00:04.150Z,39.25
2017-12-19T18:02:31.686Z,37.13
2017-12-19T18:04:59.154Z,35.92
2017-12-19T18:07:26.705Z,34.20
2017-12-19T18:09:54.152Z,30.85
2017-12-19T18:12:21.617Z,31.02
2017-12-19T18:14:49.069Z,33.30
2017-12-19T18:17:16.624Z,31.73
2017-12-19T18:19:44.100Z,31.02
2017-12-19T18:22:11.609Z,28.15
2017-12-19T18:24:39.065Z,28.38
2017-12-19T18:27:06.561Z,34.45
2017-12-19T18:29:34.020Z,28.80
2017-12-19T18:32:01.572Z,35.58
2017-12-19T18:34:29.143Z,28.05
2017-12-19T18:36:56.601Z,34.03
2017-12-19T18:39:24.060Z,40.05
2017-12-19T18:41:51.596Z,29.37
2017-12-19T18:44:19.128Z,31.95
2017-12-19T18:46:46.585Z,27.98
2017-12-19T18:49:14.077Z,31.90
2017-12-19T18:51:41.633Z,35.13
2017-12-19T18:54:09.198Z,37.13
2017-12-19T18:56:36.752Z,29.58
2017-12-19T18:59:04.313Z,39.45
2017-12-19T19:01:31.872Z,35.85
2017-12-19T19:03:59.332Z,31.73
2017-12-19T19:06:26.892Z,39.22
2017-12-19T19:08:54.440Z,29.55
2017-12-19T19:11:21.904Z,31.62
2017-12-19T19:13:49.467Z,30.55
2017-12-19T19:16:16.978Z,37.83
2017-12-19T19:18:44.476Z,42.10
2017-12-19T19:21:12.814Z,37.88
2017-12-19T19:23:40.269Z,34.42
2017-12-19T19:26:07.782Z,29.95
2017-12-19T19:28:35.245Z,40.03
2017-12-19T19:31:03.471Z,31.37
2017-12-19T19:33:30.936Z,38.45
2017-12-19T19:35:58.413Z,34.65
2017-12-19T19:38:25.969Z,31.20
2017-12-19T19:40:53.426Z,34.10
2017-12-19T19:43:20.984Z,30.88
2017-12-19T19:45:48.449Z,30.75
2017-12-19T19:48:15.919Z,27.55
2017-12-19T19:50:43.382Z,31.80
2017-12-19T19:53:11.637Z,27.42
2017-12-19T19:55:39.092Z,27.45
2017-12-19T19:58:06.559Z,37.00
2017-12-19T20:00:34.780Z,30.37
2017-12-19T20:03:02.272Z,31.62
2017-12-19T20:05:29.832Z,42.28
2017-12-19T20:07:57.393Z,29.80
2017-12-19T20:10:24.857Z,33.45
2017-12-19T20:12:52.367Z,30.52
2017-12-19T20:15:19.823Z,37.35
2017-12-19T20:17:47.389Z,36.70
2017-12-19T20:20:14.884Z,30.27
2017-12-19T20:22:42.399Z,35.35
2017-12-19T20:25:09.895Z,32.65
2017-12-19T20:27:37.353Z,34.25
2017-12-19T20:30:05.584Z,28.73
2017-12-19T20:32:33.049Z,29.35
2017-12-19T20:35:00.508Z,26.60
2017-12-19T20:37:27.992Z,31.95
2017-12-19T20:39:55.516Z,33.28
2017-12-19T20:42:22.965Z,37.88
2017-12-19T20:44:50.477Z,45.15
2017-12-19T20:47:17.937Z,33.15
2017-12-19T20:49:45.603Z,30.50
2017-12-19T20:52:13.009Z,37.28
2017-12-19T20:54:40.470Z,40.35
2017-12-19T20:57:07.928Z,34.38
2017-12-19T20:59:35.385Z,35.38
2017-12-19T21:02:02.852Z,40.58
2017-12-19T21:04:30.306Z,39.40
2017-12-19T21:06:57.843Z,32.72
2017-12-19T21:09:25.340Z,27.58
2017-12-19T21:11:52.911Z,27.92
2017-12-19T21:14:20.415Z,32.15
2017-12-19T21:16:47.933Z,30.37
2017-12-19T21:19:15.469Z,34.33
2017-12-19T21:21:43.032Z,32.47
2017-12-19T21:24:10.489Z,36.35
2017-12-19T21:26:38.052Z,37.20
2017-12-19T21:29:05.608Z,31.92
2017-12-19T21:31:33.168Z,31.92
2017-12-19T21:34:00.724Z,37.65
2017-12-19T21:36:28.285Z,30.90
2017-12-19T21:38:55.753Z,31.55
2017-12-19T21:41:23.209Z,38.95
2017-12-19T21:43:51.432Z,40.38
2017-12-19T21:46:18.885Z,32.63
2017-12-19T21:48:46.366Z,33.80
2017-12-19T21:51:13.828Z,30.50
2017-12-19T21:53:41.306Z,30.05
2017-12-19T21:56:08.770Z,41.05
2017-12-19T21:58:37.007Z,41.13
2017-12-19T22:01:04.485Z,32.85
2017-12-19T22:03:31.972Z,38.75
2017-12-19T22:06:00.196Z,38.92
2017-12-19T22:08:27.734Z,35.50
2017-12-19T22:10:55.348Z,31.98
2017-12-19T22:13:22.900Z,35.55
2017-12-19T22:15:50.452Z,43.13
2017-12-19T22:18:17.909Z,35.00
2017-12-19T22:20:45.469Z,30.40
2017-12-19T22:23:12.933Z,33.33
2017-12-19T22:25:40.487Z,38.10
2017-12-19T22:28:08.048Z,31.65
2017-12-19T22:30:35.560Z,33.80
2017-12-19T22:33:03.048Z,29.27
2017-12-19T22:35:30.512Z,40.80
2017-12-19T22:37:58.072Z,36.95
2017-12-19T22:40:25.528Z,33.47
2017-12-19T22:42:53.046Z,43.17
2017-12-19T22:45:20.496Z,32.58
2017-12-19T22:47:48.000Z,33.10
2017-12-19T22:50:15.561Z,31.17
2017-12-19T22:52:43.125Z,35.45
2017-12-19T22:55:10.681Z,40.15
2017-12-19T22:57:38.146Z,35.50
2017-12-19T23:00:05.600Z,40.55
2017-12-19T23:02:33.147Z,32.08
2017-12-19T23:05:00.604Z,32.42
2017-12-19T23:07:28.063Z,36.10
2017-12-19T23:09:55.583Z,32.15
2017-12-19T23:12:23.041Z,28.95
2017-12-19T23:14:50.505Z,35.30
2017-12-19T23:17:18.089Z,34.92
2017-12-19T23:19:45.521Z,36.95
2017-12-19T23:22:12.976Z,34.33
2017-12-19T23:24:40.456Z,32.05
2017-12-19T23:27:07.912Z,37.90
2017-12-19T23:29:35.378Z,27.95
2017-12-19T23:32:02.848Z,33.30
2017-12-19T23:34:30.305Z,31.45
2017-12-19T23:36:58.625Z,31.62
2017-12-19T23:39:26.184Z,34.45
2017-12-19T23:41:53.653Z,30.67
2017-12-19T23:44:21.132Z,31.50
2017-12-19T23:46:48.597Z,31.05
2017-12-19T23:49:16.062Z,34.80
2017-12-19T23:51:43.529Z,33.67
2017-12-19T23:54:11.743Z,29.48
2017-12-19T23:56:39.216Z,34.00
2017-12-19T23:59:06.664Z,34.33
